Time;durP1;ratioP1;P1;durP2;ratioP2;P2;SDS_P1;SDS_P2;PMS_P1;PMS_P2;Temp;Humidity;BMP_temperature;BMP_pressure;BME280_temperature;BME280_humidity;BME280_pressure;Samples;Min_cycle;Max_cycle;Signal;HPM_P1;HPM_P2
2021/03/11 00:00:27;;;;;;;64.15;31.95;;;51.70;1715.20;;;;;;5031784;28;20050;-60
2021/03/11 00:02:52;;;;;;;67.03;33.25;;;51.60;1740.80;;;;;;5012830;28;20379;-59
2021/03/11 00:05:20;;;;;;;62.60;33.53;;;51.50;1766.40;;;;;;5013191;28;20116;-59
2021/03/11 00:07:45;;;;;;;64.47;33.47;;;51.40;1766.40;;;;;;5013250;28;20464;-59
2021/03/11 00:10:12;;;;;;;64.53;33.42;;;51.30;1792.00;;;;;;5013664;28;20022;-60
2021/03/11 00:12:45;;;;;;;57.35;30.98;;;51.20;1792.00;;;;;;5013422;28;20022;-60
2021/03/11 00:15:15;;;;;;;59.80;30.48;;;51.20;1792.00;;;;;;5013227;28;20030;-60
2021/03/11 00:17:40;;;;;;;55.17;29.85;;;51.20;1817.60;;;;;;4996379;28;20483;-60
2021/03/11 00:20:11;;;;;;;59.55;30.15;;;51.20;1817.60;;;;;;5013602;28;20041;-60
2021/03/11 00:22:38;;;;;;;56.97;28.55;;;51.20;1817.60;;;;;;5009958;28;20022;-60
2021/03/11 00:25:06;;;;;;;48.13;24.90;;;51.20;1817.60;;;;;;5014083;28;20120;-60
2021/03/11 00:27:32;;;;;;;37.60;20.25;;;51.20;1817.60;;;;;;5013819;28;20026;-60
2021/03/11 00:29:57;;;;;;;35.20;18.42;;;51.30;1792.00;;;;;;5013536;28;20048;-60
2021/03/11 00:32:23;;;;;;;33.95;18.25;;;51.30;1766.40;;;;;;5012968;28;20134;-60
2021/03/11 00:34:49;;;;;;;35.65;17.75;;;51.30;1766.40;;;;;;5013510;28;20025;-60
2021/03/11 00:37:15;;;;;;;34.25;18.02;;;51.40;1740.80;;;;;;5013885;28;20034;-60
2021/03/11 00:39:40;;;;;;;35.45;18.38;;;51.40;1740.80;;;;;;5013793;28;20026;-60
2021/03/11 00:42:06;;;;;;;35.33;18.80;;;51.40;1740.80;;;;;;5013683;28;20471;-59
2021/03/11 00:44:32;;;;;;;37.10;18.23;;;51.40;1740.80;;;;;;5014120;28;20037;-60
2021/03/11 00:46:58;;;;;;;35.00;17.55;;;51.50;1740.80;;;;;;5013482;28;20026;-60
2021/03/11 00:49:24;;;;;;;33.45;18.25;;;51.50;1715.20;;;;;;5013897;28;20113;-59
2021/03/11 00:51:50;;;;;;;31.95;17.63;;;51.50;1715.20;;;;;;5014481;28;20407;-67
2021/03/11 00:54:15;;;;;;;32.58;17.77;;;51.60;1715.20;;;;;;5014238;28;20095;-60
2021/03/11 00:56:41;;;;;;;33.03;17.88;;;51.60;1715.20;;;;;;4996343;28;20022;-61
2021/03/11 00:59:07;;;;;;;30.20;17.52;;;51.60;1715.20;;;;;;5014081;28;20050;-61
2021/03/11 01:01:33;;;;;;;32.17;17.70;;;51.50;1715.20;;;;;;5013631;28;20387;-61
2021/03/11 01:04:00;;;;;;;34.25;18.13;;;51.50;1715.20;;;;;;5033359;28;20033;-62
2021/03/11 01:06:26;;;;;;;32.75;17.67;;;51.50;1740.80;;;;;;5033434;28;20040;-61
2021/03/11 01:08:51;;;;;;;34.67;18.40;;;51.50;1740.80;;;;;;5033001;28;20443;-61
2021/03/11 01:11:17;;;;;;;36.50;19.15;;;51.50;1740.80;;;;;;5033055;28;20055;-61
2021/03/11 01:13:43;;;;;;;38.67;19.70;;;51.50;1740.80;;;;;;5032869;28;20104;-60
2021/03/11 01:16:09;;;;;;;38.00;20.33;;;51.50;1740.80;;;;;;5033258;28;20117;-60
2021/03/11 01:18:35;;;;;;;38.72;20.27;;;51.50;1740.80;;;;;;5033780;28;20037;-61
2021/03/11 01:21:01;;;;;;;39.58;20.30;;;51.40;1740.80;;;;;;5037043;28;20018;-60
2021/03/11 01:23:26;;;;;;;36.35;19.52;;;51.40;1740.80;;;;;;5036234;28;20030;-60
2021/03/11 01:25:52;;;;;;;35.63;19.38;;;51.40;1715.20;;;;;;5036527;28;20033;-61
2021/03/11 01:28:18;;;;;;;35.60;18.67;;;51.40;1715.20;;;;;;5036574;28;20032;-60
2021/03/11 01:30:44;;;;;;;33.42;17.88;;;51.40;1715.20;;;;;;5018399;28;20030;-61
2021/03/11 01:33:09;;;;;;;32.60;18.08;;;51.30;1715.20;;;;;;5018449;28;20115;-60
2021/03/11 01:35:35;;;;;;;36.17;18.48;;;51.30;1715.20;;;;;;5036256;28;20051;-60
2021/03/11 01:38:01;;;;;;;36.13;19.17;;;51.30;1715.20;;;;;;5036430;28;20364;-61
2021/03/11 01:40:27;;;;;;;35.58;19.17;;;51.20;1689.60;;;;;;5036412;28;20064;-62
2021/03/11 01:42:53;;;;;;;38.63;19.35;;;51.30;1689.60;;;;;;5036338;28;20471;-63
2021/03/11 01:45:20;;;;;;;33.65;19.48;;;51.30;1689.60;;;;;;5035984;28;20068;-60
2021/03/11 01:47:45;;;;;;;40.60;20.90;;;51.20;1689.60;;;;;;5035255;28;20398;-61
2021/03/11 01:50:11;;;;;;;40.00;21.45;;;51.20;1689.60;;;;;;5016427;28;20044;-60
2021/03/11 01:52:39;;;;;;;54.70;27.08;;;26.50;1689.60;;;;;;5031774;28;20017;-60
2021/03/11 01:55:06;;;;;;;53.88;27.52;;;26.40;1664.00;;;;;;5034728;28;20459;-60
2021/03/11 01:57:33;;;;;;;48.42;24.88;;;26.40;1689.60;;;;;;5034602;28;20037;-60
2021/03/11 02:00:01;;;;;;;44.22;23.75;;;26.30;1715.20;;;;;;5034230;28;20164;-60
2021/03/11 02:02:27;;;;;;;45.63;25.52;;;26.20;1740.80;;;;;;5034806;28;20029;-60
2021/03/11 02:04:53;;;;;;;45.50;25.15;;;26.20;1740.80;;;;;;5034650;28;20030;-60
2021/03/11 02:07:18;;;;;;;44.97;24.25;;;26.10;1740.80;;;;;;5034816;28;20408;-60
2021/03/11 02:09:44;;;;;;;45.00;24.48;;;26.10;1740.80;;;;;;5034448;28;20018;-60
2021/03/11 02:12:19;;;;;;;46.03;24.52;;;26.10;1740.80;;;;;;5034983;28;20022;-60
2021/03/11 02:14:50;;;;;;;;;;;26.00;1766.40;;;;;;5034574;28;20525;-60
2021/03/11 02:17:21;;;;;;;56.42;28.00;;;26.00;1766.40;;;;;;5034281;28;19995;-60
2021/03/11 02:20:18;;;;;;;54.00;27.90;;;25.90;1792.00;;;;;;5034284;28;20064;-60
2021/03/11 02:23:09;;;;;;;56.17;28.05;;;25.80;1792.00;;;;;;5033964;28;20021;-60
2021/03/11 02:25:43;;;;;;;50.67;26.80;;;25.80;1792.00;;;;;;5032324;28;20040;-60
2021/03/11 02:28:42;;;;;;;49.42;25.33;;;25.80;1792.00;;;;;;5031431;28;20045;-60
2021/03/11 02:31:09;;;;;;;50.30;25.73;;;25.70;1792.00;;;;;;5030507;28;20021;-62
2021/03/11 02:33:36;;;;;;;57.08;27.35;;;25.70;1792.00;;;;;;5034010;28;20017;-62
2021/03/11 02:36:04;;;;;;;49.33;25.60;;;25.70;1792.00;;;;;;5034209;28;20091;-60
2021/03/11 02:38:32;;;;;;;51.55;26.27;;;25.70;1766.40;;;;;;5031557;28;20018;-60
2021/03/11 02:41:01;;;;;;;51.85;25.75;;;25.70;1766.40;;;;;;5034109;28;20028;-60
2021/03/11 02:43:28;;;;;;;54.28;25.33;;;25.60;1766.40;;;;;;5033996;28;20025;-60
2021/03/11 02:45:55;;;;;;;44.88;24.67;;;25.60;1766.40;;;;;;5033714;28;20025;-60
2021/03/11 02:48:22;;;;;;;44.00;25.05;;;25.60;1766.40;;;;;;5033772;28;20029;-60
2021/03/11 02:50:48;;;;;;;45.55;26.27;;;25.60;1766.40;;;;;;5033626;28;20032;-60
2021/03/11 02:53:14;;;;;;;48.42;27.23;;;0.90;1766.40;;;;;;5033479;28;20466;-60
2021/03/11 02:55:42;;;;;;;45.13;25.98;;;0.90;1766.40;;;;;;5033607;28;20033;-59
2021/03/11 02:58:13;;;;;;;44.50;23.98;;;0.90;1766.40;;;;;;5033213;28;20022;-61
2021/03/11 03:00:43;;;;;;;48.70;24.13;;;0.90;1766.40;;;;;;5033523;28;20045;-59
2021/03/11 03:03:10;;;;;;;46.50;24.63;;;0.80;1766.40;;;;;;5033698;28;20455;-59
2021/03/11 03:05:38;;;;;;;45.25;25.27;;;0.80;1766.40;;;;;;5033191;28;20037;-60
2021/03/11 03:08:05;;;;;;;48.65;26.30;;;0.80;1740.80;;;;;;5033858;28;20056;-60
2021/03/11 03:10:34;;;;;;;47.00;26.23;;;0.30;1766.40;;;;;;5033482;28;20029;-60
2021/03/11 03:13:09;;;;;;;48.17;26.63;;;0.80;1766.40;;;;;;5033878;28;20147;-60
2021/03/11 03:15:36;;;;;;;45.50;25.73;;;0.70;1766.40;;;;;;5033171;28;20526;-60
2021/03/11 03:18:04;;;;;;;41.88;24.17;;;0.50;1766.40;;;;;;5033104;28;20029;-60
2021/03/11 03:20:30;;;;;;;47.05;26.88;;;0.60;1766.40;;;;;;5033266;28;20059;-60
2021/03/11 03:22:59;;;;;;;46.17;25.73;;;0.60;1766.40;;;;;;5033049;28;20053;-60
2021/03/11 03:25:24;;;;;;;46.83;25.88;;;0.50;1792.00;;;;;;5033215;28;20046;-60
2021/03/11 03:27:50;;;;;;;57.67;30.08;;;0.50;1792.00;;;;;;5032887;28;20092;-60
2021/03/11 03:30:17;;;;;;;64.85;32.85;;;0.50;1792.00;;;;;;5032879;28;20021;-60
2021/03/11 03:32:48;;;;;;;64.97;33.53;;;0.50;1766.40;;;;;;5032920;28;20028;-60
2021/03/11 03:35:14;;;;;;;51.30;29.02;;;0.50;1792.00;;;;;;5033072;28;20104;-60
2021/03/11 03:37:41;;;;;;;55.08;29.05;;;0.40;1792.00;;;;;;5032837;28;20036;-60
2021/03/11 03:40:11;;;;;;;54.63;28.98;;;0.40;1792.00;;;;;;5027806;28;20124;-60
2021/03/11 03:42:40;;;;;;;52.80;27.35;;;0.40;1792.00;;;;;;5032555;28;20467;-60
2021/03/11 03:45:09;;;;;;;47.25;25.48;;;0.40;1792.00;;;;;;5027467;28;20056;-60
2021/03/11 03:47:35;;;;;;;47.60;25.88;;;0.30;1817.60;;;;;;5032579;28;20379;-61
2021/03/11 03:50:02;;;;;;;46.17;23.98;;;0.30;1817.60;;;;;;5032826;28;20105;-61
2021/03/11 03:52:29;;;;;;;47.45;25.50;;;0.20;1843.20;;;;;;5032616;28;20037;-60
2021/03/11 03:54:58;;;;;;;47.38;24.85;;;0.20;1843.20;;;;;;5032715;28;20029;-60
2021/03/11 03:57:26;;;;;;;49.53;25.25;;;0.10;1843.20;;;;;;5027410;28;20021;-60
2021/03/11 03:59:53;;;;;;;42.83;23.23;;;0.00;1868.80;;;;;;5035258;28;20079;-66
2021/03/11 04:02:21;;;;;;;46.72;23.63;;;12.90;1868.80;;;;;;5043661;28;20029;-60
2021/03/11 04:04:50;;;;;;;46.15;24.02;;;13.00;1868.80;;;;;;5042408;28;20063;-60
2021/03/11 04:07:24;;;;;;;42.88;23.02;;;13.10;1868.80;;;;;;5041939;28;20025;-60
2021/03/11 04:09:50;;;;;;;40.72;21.45;;;13.10;1894.40;;;;;;5040447;28;20029;-61
2021/03/11 04:12:18;;;;;;;46.45;24.30;;;13.30;1894.40;;;;;;5034584;28;20048;-61
2021/03/11 04:14:46;;;;;;;49.42;24.30;;;13.30;1920.00;;;;;;5034679;28;20026;-61
2021/03/11 04:17:13;;;;;;;39.35;19.20;;;13.50;1920.00;;;;;;5035010;28;20029;-60
2021/03/11 04:19:40;;;;;;;38.28;18.60;;;13.60;1920.00;;;;;;5038705;28;20053;-60
2021/03/11 04:22:07;;;;;;;31.40;15.90;;;38.40;1945.60;;;;;;5038825;28;20561;-60
2021/03/11 04:24:35;;;;;;;33.58;15.68;;;38.50;1971.20;;;;;;5042214;28;20055;-60
2021/03/11 04:27:04;;;;;;;35.58;16.55;;;38.80;1996.80;;;;;;5043500;28;20029;-60
2021/03/11 04:29:30;;;;;;;30.52;16.15;;;39.00;2048.00;;;;;;5041826;28;20036;-61
2021/03/11 04:31:57;;;;;;;34.58;16.52;;;39.00;2073.60;;;;;;5041642;28;20489;-60
2021/03/11 04:34:23;;;;;;;30.38;15.70;;;39.00;2073.60;;;;;;5043294;28;20017;-61
2021/03/11 04:36:50;;;;;;;31.73;16.58;;;38.90;2099.20;;;;;;5041598;28;20189;-60
2021/03/11 04:39:20;;;;;;;39.55;19.33;;;38.90;2099.20;;;;;;5041725;28;20045;-60
2021/03/11 04:41:51;;;;;;;49.58;23.42;;;38.90;2099.20;;;;;;5038510;28;20025;-60
2021/03/11 04:44:19;;;;;;;54.53;25.50;;;38.90;2124.80;;;;;;5041456;28;20528;-60
2021/03/11 04:46:46;;;;;;;77.55;37.60;;;38.70;2124.80;;;;;;5038172;28;20117;-61
2021/03/11 04:49:13;;;;;;;81.68;39.13;;;38.70;2176.00;;;;;;5042541;28;20024;-60
2021/03/11 04:51:39;;;;;;;70.07;31.85;;;38.60;2176.00;;;;;;5042727;28;20021;-60
2021/03/11 04:54:05;;;;;;;80.75;37.55;;;38.60;2150.40;;;;;;5042459;28;20041;-60
2021/03/11 04:56:30;;;;;;;77.82;36.47;;;38.60;2150.40;;;;;;5046331;28;20048;-61
2021/03/11 04:58:56;;;;;;;62.00;31.00;;;38.50;2124.80;;;;;;5046162;28;20476;-61
2021/03/11 05:01:29;;;;;;;93.72;42.17;;;38.50;2124.80;;;;;;5036031;28;20099;-61
2021/03/11 05:03:56;;;;;;;70.53;34.03;;;38.50;2124.80;;;;;;5035679;28;20052;-60
2021/03/11 05:06:22;;;;;;;49.60;24.70;;;38.50;2124.80;;;;;;5035933;28;20033;-60
2021/03/11 05:08:47;;;;;;;47.13;22.38;;;38.50;2099.20;;;;;;5035636;28;20048;-60
2021/03/11 05:11:14;;;;;;;44.42;22.08;;;38.60;2124.80;;;;;;5035474;28;20045;-60
2021/03/11 05:13:41;;;;;;;50.75;23.95;;;38.70;2124.80;;;;;;5035680;28;20029;-61
2021/03/11 05:16:06;;;;;;;42.63;21.80;;;38.70;2150.40;;;;;;5030472;28;20117;-60
2021/03/11 05:18:32;;;;;;;39.67;21.15;;;38.70;2150.40;;;;;;5035662;28;20105;-60
2021/03/11 05:20:58;;;;;;;70.60;31.42;;;38.80;2150.40;;;;;;5035514;28;20104;-60
2021/03/11 05:23:24;;;;;;;79.20;37.67;;;38.70;2150.40;;;;;;5035345;28;20028;-60
2021/03/11 05:25:53;;;;;;;65.90;31.20;;;38.50;2150.40;;;;;;5035272;28;20379;-60
2021/03/11 05:28:21;;;;;;;201.25;68.78;;;38.60;2176.00;;;;;;5017561;28;20424;-61
2021/03/11 05:30:47;;;;;;;271.83;85.65;;;38.40;2150.40;;;;;;5030191;28;20021;-60
2021/03/11 05:33:13;;;;;;;180.23;63.63;;;13.70;2201.60;;;;;;5034858;28;20014;-61
2021/03/11 05:35:39;;;;;;;389.40;118.38;;;13.70;2176.00;;;;;;5034740;28;20430;-60
2021/03/11 05:38:06;;;;;;;349.38;108.43;;;13.50;2176.00;;;;;;5034085;28;20026;-60
2021/03/11 05:40:32;;;;;;;399.42;135.55;;;13.40;2176.00;;;;;;5033335;28;20029;-60
2021/03/11 05:42:59;;;;;;;326.77;113.53;;;13.40;2201.60;;;;;;5033318;28;20025;-60
2021/03/11 05:45:26;;;;;;;325.58;113.68;;;13.20;2201.60;;;;;;5032787;28;20045;-60
2021/03/11 05:47:53;;;;;;;264.35;95.93;;;13.10;2201.60;;;;;;5032573;28;20026;-60
2021/03/11 05:50:19;;;;;;;202.27;78.45;;;12.90;2201.60;;;;;;5032325;28;20075;-61
2021/03/11 05:52:46;;;;;;;176.10;70.18;;;0.00;2201.60;;;;;;5035570;28;20463;-61
2021/03/11 05:55:12;;;;;;;180.98;71.13;;;0.20;2201.60;;;;;;5035767;28;20026;-61
2021/03/11 05:57:43;;;;;;;195.73;84.15;;;0.30;2201.60;;;;;;5035871;28;20021;-61
2021/03/11 06:00:14;;;;;;;101.28;47.03;;;0.50;2124.80;;;;;;5042470;28;20514;-61
2021/03/11 06:02:40;;;;;;;84.82;39.13;;;0.70;2022.40;;;;;;5031976;28;20025;-61
2021/03/11 06:05:08;;;;;;;91.03;44.10;;;0.80;1996.80;;;;;;5053080;28;20041;-61
2021/03/11 06:07:34;;;;;;;66.63;34.55;;;0.90;1945.60;;;;;;5054341;28;20109;-61
2021/03/11 06:10:05;;;;;;;67.90;35.13;;;25.70;1920.00;;;;;;5055487;28;20112;-61
2021/03/11 06:12:32;;;;;;;70.63;37.08;;;25.90;1894.40;;;;;;5055565;28;20017;-61
2021/03/11 06:15:04;;;;;;;70.15;33.88;;;26.10;1868.80;;;;;;5055733;28;20029;-61
2021/03/11 06:17:33;;;;;;;82.05;39.33;;;26.30;1843.20;;;;;;5055812;28;20063;-61
2021/03/11 06:19:59;;;;;;;66.25;33.85;;;26.50;1792.00;;;;;;5055474;28;20039;-60
2021/03/11 06:22:25;;;;;;;71.35;34.45;;;51.20;1792.00;;;;;;5054363;28;20044;-61
2021/03/11 06:24:52;;;;;;;83.18;39.95;;;51.40;1740.80;;;;;;5052824;28;20124;-61
2021/03/11 06:27:18;;;;;;;81.68;39.25;;;51.60;1715.20;;;;;;5053845;28;20041;-61
2021/03/11 06:29:43;;;;;;;83.90;36.67;;;51.70;1689.60;;;;;;5054978;28;20105;-62
2021/03/11 06:32:11;;;;;;;77.45;36.85;;;51.80;1664.00;;;;;;5053859;28;20379;-62
2021/03/11 06:34:39;;;;;;;70.40;35.25;;;52.00;1638.40;;;;;;5054246;28;20033;-62
2021/03/11 06:37:06;;;;;;;56.88;29.08;;;76.90;1612.80;;;;;;5054983;28;20037;-61
2021/03/11 06:39:34;;;;;;;61.70;32.90;;;77.50;1510.40;;;;;;5054069;28;20037;-62
2021/03/11 06:42:01;;;;;;;66.25;39.60;;;103.10;1408.00;;;;;;5053515;28;20091;-62
2021/03/11 06:44:37;;;;;;;48.05;28.13;;;153.70;1356.80;;;;;;5053147;28;20037;-62
2021/03/11 06:47:07;;;;;;;54.35;33.55;;;179.90;1177.60;;;;;;5053816;28;20548;-62
2021/03/11 06:49:33;;;;;;;51.65;31.95;;;230.50;1049.60;;;;;;5053595;28;20047;-61
2021/03/11 06:52:13;;;;;;;40.67;26.00;;;256.70;896.00;;;;;;5052830;28;20055;-62
2021/03/11 06:54:56;;;;;;;61.70;39.25;;;307.40;844.80;;;;;;5052864;28;20053;-61
2021/03/11 06:57:35;;;;;;;55.55;35.97;;;333.30;793.60;;;;;;5053248;28;20029;-61
2021/03/11 07:00:22;;;;;;;45.75;28.52;;;359.10;716.80;;;;;;5054429;28;20118;-61
2021/03/11 07:02:59;;;;;;;56.95;36.50;;;384.50;640.00;;;;;;5039608;28;20382;-59
2021/03/11 07:05:27;;;;;;;50.90;34.83;;;409.90;665.60;;;;;;5054618;28;20048;-59
2021/03/11 07:08:14;;;;;;;67.35;49.28;;;435.30;588.80;;;;;;5054723;28;20032;-58
2021/03/11 07:10:42;;;;;;;60.45;41.30;;;435.80;563.20;;;;;;5054702;28;20025;-61
2021/03/11 07:13:08;;;;;;;112.60;59.42;;;461.00;563.20;;;;;;5054608;28;20425;-61
2021/03/11 07:15:35;;;;;;;165.63;70.15;;;461.40;537.60;;;;;;5054479;28;20478;-61
2021/03/11 07:18:05;;;;;;;251.07;88.15;;;461.20;537.60;;;;;;5054296;28;20055;-61
2021/03/11 07:20:33;;;;;;;69.20;42.28;;;461.50;537.60;;;;;;5053879;28;20051;-61
2021/03/11 07:23:11;;;;;;;55.47;38.45;;;486.90;512.00;;;;;;5053771;28;20029;-61
2021/03/11 07:25:44;;;;;;;93.78;61.80;;;512.00;486.40;;;;;;5052906;28;20109;-62
2021/03/11 07:28:26;;;;;;;102.45;63.35;;;512.70;460.80;;;;;;5053835;28;20094;-61
2021/03/11 07:31:00;;;;;;;50.45;40.25;;;563.30;435.20;;;;;;5054414;28;20049;-62
2021/03/11 07:33:28;;;;;;;49.53;39.20;;;538.20;435.20;;;;;;5054146;28;20382;-61
2021/03/11 07:35:58;;;;;;;45.50;33.67;;;512.00;460.80;;;;;;5054245;28;20025;-62
2021/03/11 07:38:27;;;;;;;51.28;37.88;;;486.70;486.40;;;;;;5054114;28;20104;-61
2021/03/11 07:40:55;;;;;;;68.57;44.00;;;461.70;537.60;;;;;;5053831;28;20024;-61
2021/03/11 07:43:21;;;;;;;54.65;38.90;;;486.90;537.60;;;;;;5054030;28;20036;-60
2021/03/11 07:45:47;;;;;;;50.42;37.05;;;461.60;563.20;;;;;;5054056;28;20037;-62
2021/03/11 07:48:14;;;;;;;40.45;30.85;;;461.30;563.20;;;;;;5054066;28;20028;-60
2021/03/11 07:50:42;;;;;;;39.40;29.48;;;461.40;563.20;;;;;;5053979;28;20383;-63
2021/03/11 07:53:08;;;;;;;40.08;32.05;;;486.90;512.00;;;;;;5050985;28;20024;-61
2021/03/11 07:55:34;;;;;;;46.65;39.20;;;512.60;460.80;;;;;;5051199;28;20534;-61
2021/03/11 07:58:09;;;;;;;43.50;32.08;;;537.90;460.80;;;;;;5050908;28;20028;-61
2021/03/11 08:00:35;;;;;;;;;;;563.70;435.20;;;;;;5051386;28;20179;-61
2021/03/11 08:03:14;;;;;;;40.78;31.27;;;538.00;460.80;;;;;;5051105;28;20328;-61
2021/03/11 08:05:40;;;;;;;31.17;26.60;;;563.20;435.20;;;;;;5051075;28;20478;-61
2021/03/11 08:08:15;;;;;;;29.52;23.88;;;589.20;358.40;;;;;;5051174;28;20029;-61
2021/03/11 08:10:47;;;;;;;28.02;23.25;;;589.50;358.40;;;;;;5052027;28;20025;-61
2021/03/11 08:13:38;;;;;;;34.88;28.77;;;589.50;358.40;;;;;;5053221;28;20025;-67
2021/03/11 08:16:16;;;;;;;31.80;27.00;;;615.30;307.20;;;;;;5053792;28;20031;-65
2021/03/11 08:18:43;;;;;;;33.08;26.33;;;615.10;307.20;;;;;;5053544;28;20021;-65
2021/03/11 08:21:24;;;;;;;28.70;24.23;;;640.40;281.60;;;;;;5053797;28;20025;-64
2021/03/11 08:23:51;;;;;;;27.17;23.73;;;691.30;230.40;;;;;;5053457;28;20497;-65
2021/03/11 08:26:44;;;;;;;27.10;22.73;;;666.50;230.40;;;;;;5053631;28;20037;-63
2021/03/11 08:29:15;;;;;;;29.65;22.42;;;665.60;256.00;;;;;;5053231;28;20033;-61
2021/03/11 08:31:41;;;;;;;36.38;28.52;;;665.70;281.60;;;;;;5054918;28;20021;-63
2021/03/11 08:34:07;;;;;;;39.55;30.67;;;666.40;256.00;;;;;;5054828;28;20036;-62
2021/03/11 08:36:39;;;;;;;75.93;51.05;;;666.50;230.40;;;;;;5054987;28;20040;-60
2021/03/11 08:39:39;;;;;;;47.45;39.25;;;691.50;204.80;;;;;;5054823;28;20563;-60
2021/03/11 08:42:42;;;;;;;36.78;31.65;;;666.40;230.40;;;;;;4954445;29;20062;-60
2021/03/11 08:45:08;;;;;;;35.25;28.83;;;716.90;230.40;;;;;;4954098;28;20066;-61
2021/03/11 08:47:34;;;;;;;35.90;30.48;;;717.60;204.80;;;;;;4948488;29;20062;-61
2021/03/11 08:50:02;;;;;;;55.67;38.55;;;742.70;204.80;;;;;;4935196;29;20485;-60
2021/03/11 08:52:45;;;;;;;31.75;25.70;;;691.40;230.40;;;;;;4935878;29;20033;-61
2021/03/11 08:55:34;;;;;;;29.55;24.52;;;717.30;179.20;;;;;;4932222;29;20040;-61
2021/03/11 08:58:00;;;;;;;30.25;24.38;;;692.10;179.20;;;;;;4936554;29;20140;-61
2021/03/11 09:01:01;;;;;;;32.88;27.13;;;692.00;179.20;;;;;;4928021;29;20533;-61
2021/03/11 09:03:38;;;;;;;35.38;29.73;;;692.10;179.20;;;;;;4917813;29;20173;-61
2021/03/11 09:06:04;;;;;;;28.17;24.95;;;716.80;179.20;;;;;;4917585;29;20040;-60
2021/03/11 09:08:30;;;;;;;33.20;27.58;;;717.00;179.20;;;;;;4920138;29;20031;-60
2021/03/11 09:11:14;;;;;;;35.85;29.95;;;742.50;204.80;;;;;;4937389;29;20031;-61
2021/03/11 09:13:43;;;;;;;;;;;768.60;204.80;;;;;;4934508;29;20032;-59
2021/03/11 09:16:10;;;;;;;31.45;26.90;;;742.40;204.80;;;;;;4930814;29;19906;-60
2021/03/11 09:18:36;;;;;;;36.72;29.45;;;743.20;204.80;;;;;;5004494;28;20042;-61
2021/03/11 09:21:07;;;;;;;27.30;23.88;;;742.70;204.80;;;;;;5015042;28;20053;-62
2021/03/11 09:23:42;;;;;;;25.25;22.65;;;743.30;204.80;;;;;;5015649;28;20522;-60
2021/03/11 09:26:26;;;;;;;33.05;26.80;;;742.80;204.80;;;;;;5015842;28;20089;-61
2021/03/11 09:28:52;;;;;;;;;;;717.30;179.20;;;;;;5016651;28;20376;-61
2021/03/11 09:31:25;;;;;;;35.30;26.63;;;717.30;179.20;;;;;;5016325;28;19912;-62
2021/03/11 09:33:52;;;;;;;46.47;35.03;;;717.00;179.20;;;;;;5017104;28;20026;-61
2021/03/11 09:36:18;;;;;;;25.45;22.38;;;691.90;153.60;;;;;;5016670;28;20061;-61
2021/03/11 09:38:44;;;;;;;34.13;30.38;;;691.60;179.20;;;;;;5016795;28;20026;-60
2021/03/11 09:41:10;;;;;;;24.92;21.40;;;691.70;179.20;;;;;;5016280;28;20420;-59
2021/03/11 09:43:38;;;;;;;21.60;18.35;;;717.10;179.20;;;;;;5016802;28;20091;-59
2021/03/11 09:46:15;;;;;;;33.00;29.45;;;717.50;179.20;;;;;;5016399;28;20042;-60
2021/03/11 09:48:54;;;;;;;24.05;21.55;;;717.00;179.20;;;;;;5016403;28;20041;-60
2021/03/11 09:51:22;;;;;;;22.15;19.77;;;717.70;179.20;;;;;;4999790;28;20030;-58
2021/03/11 09:54:00;;;;;;;23.02;18.98;;;716.90;179.20;;;;;;5013758;28;20388;-59
2021/03/11 09:56:26;;;;;;;23.25;20.77;;;691.60;204.80;;;;;;5015446;28;20059;-60
2021/03/11 09:59:02;;;;;;;23.58;21.00;;;691.80;179.20;;;;;;5015724;28;20423;-59
2021/03/11 10:01:38;;;;;;;24.20;20.65;;;716.90;204.80;;;;;;5032749;28;20077;-59
2021/03/11 10:04:27;;;;;;;22.05;19.75;;;717.70;179.20;;;;;;5050812;28;20025;-59
2021/03/11 10:06:59;;;;;;;20.95;18.77;;;716.90;204.80;;;;;;5055410;28;20044;-59
2021/03/11 10:09:35;;;;;;;23.90;17.98;;;742.80;204.80;;;;;;5054386;28;20033;-59
2021/03/11 10:12:01;;;;;;;20.33;18.33;;;742.70;204.80;;;;;;5052845;28;20028;-59
2021/03/11 10:14:29;;;;;;;29.77;26.40;;;716.90;179.20;;;;;;5053573;28;20025;-59
2021/03/11 10:16:57;;;;;;;23.05;20.55;;;692.10;153.60;;;;;;5054592;28;20478;-59
2021/03/11 10:19:28;;;;;;;18.67;16.65;;;717.70;179.20;;;;;;5053057;28;20128;-59
2021/03/11 10:22:14;;;;;;;29.20;26.05;;;742.90;204.80;;;;;;5054763;28;20017;-59
2021/03/11 10:24:43;;;;;;;31.98;28.63;;;742.60;204.80;;;;;;5054851;28;20037;-59
2021/03/11 10:27:23;;;;;;;23.17;20.15;;;768.30;204.80;;;;;;5053488;28;20059;-58
2021/03/11 10:30:11;;;;;;;21.08;16.20;;;742.50;204.80;;;;;;5053172;28;20025;-58
2021/03/11 10:32:41;;;;;;;35.20;29.52;;;717.00;179.20;;;;;;5052503;28;20025;-59
2021/03/11 10:35:12;;;;;;;22.83;20.17;;;691.50;204.80;;;;;;5051878;28;20473;-59
2021/03/11 10:37:40;;;;;;;23.88;19.88;;;742.70;204.80;;;;;;5053174;28;20035;-58
2021/03/11 10:40:11;;;;;;;22.73;20.15;;;691.40;179.20;;;;;;5054580;28;20035;-58
2021/03/11 10:42:43;;;;;;;20.80;18.00;;;691.40;204.80;;;;;;5054610;28;20060;-59
2021/03/11 10:45:14;;;;;;;37.67;27.60;;;691.60;179.20;;;;;;5054446;28;20033;-59
2021/03/11 10:47:42;;;;;;;26.67;19.83;;;717.70;179.20;;;;;;5052969;28;20137;-59
2021/03/11 10:50:21;;;;;;;23.85;18.90;;;691.70;179.20;;;;;;5042642;28;20461;-60
2021/03/11 10:52:55;;;;;;;56.47;35.13;;;665.90;204.80;;;;;;5032726;28;20487;-60
2021/03/11 10:55:35;;;;;;;31.08;23.95;;;665.80;230.40;;;;;;5033369;28;20042;-59
2021/03/11 10:58:03;;;;;;;19.60;17.33;;;665.80;204.80;;;;;;5032909;28;20029;-59
2021/03/11 11:00:31;;;;;;;19.73;17.30;;;666.40;204.80;;;;;;5048390;28;20049;-59
2021/03/11 11:03:00;;;;;;;122.32;67.82;;;717.10;179.20;;;;;;5053108;28;20021;-59
2021/03/11 11:05:26;;;;;;;29.00;20.50;;;717.00;179.20;;;;;;5053653;28;20029;-59
2021/03/11 11:07:52;;;;;;;44.20;29.10;;;691.40;179.20;;;;;;5053772;28;20021;-58
2021/03/11 11:10:21;;;;;;;54.05;33.30;;;717.30;179.20;;;;;;5034338;28;20489;-59
2021/03/11 11:12:48;;;;;;;18.33;15.40;;;742.70;204.80;;;;;;5032561;28;20057;-59
2021/03/11 11:15:14;;;;;;;19.33;15.20;;;742.40;204.80;;;;;;5032717;28;20029;-58
2021/03/11 11:17:41;;;;;;;35.97;26.60;;;717.40;179.20;;;;;;5033656;28;20108;-59
2021/03/11 11:20:08;;;;;;;20.73;17.35;;;691.80;179.20;;;;;;5033134;28;20029;-58
2021/03/11 11:22:35;;;;;;;30.40;24.20;;;691.20;204.80;;;;;;5032822;28;20079;-59
2021/03/11 11:25:01;;;;;;;30.73;23.98;;;691.60;179.20;;;;;;5032415;28;20049;-59
2021/03/11 11:27:27;;;;;;;18.20;15.65;;;665.90;204.80;;;;;;5033019;28;20025;-59
2021/03/11 11:29:53;;;;;;;18.38;16.02;;;692.00;179.20;;;;;;5032388;28;20127;-58
2021/03/11 11:32:19;;;;;;;23.27;16.77;;;691.80;179.20;;;;;;5033704;28;20050;-60
2021/03/11 11:34:45;;;;;;;29.10;21.52;;;666.10;204.80;;;;;;5032361;28;20490;-62
2021/03/11 11:37:11;;;;;;;22.45;18.13;;;640.00;230.40;;;;;;5032594;28;20025;-58
2021/03/11 11:39:37;;;;;;;20.13;17.25;;;665.60;204.80;;;;;;5032669;28;20045;-59
2021/03/11 11:42:05;;;;;;;22.80;16.98;;;691.80;153.60;;;;;;5032418;28;20025;-59
2021/03/11 11:44:31;;;;;;;17.50;14.50;;;716.80;179.20;;;;;;5031657;28;20041;-58
2021/03/11 11:46:56;;;;;;;19.08;14.90;;;717.60;179.20;;;;;;5031776;28;20033;-59
2021/03/11 11:49:22;;;;;;;26.05;16.70;;;717.70;179.20;;;;;;5032820;28;20033;-59
2021/03/11 11:51:48;;;;;;;21.50;14.25;;;742.60;204.80;;;;;;5047126;28;20029;-59
2021/03/11 11:54:14;;;;;;;21.48;16.77;;;717.30;179.20;;;;;;5036689;28;20509;-58
2021/03/11 11:56:40;;;;;;;22.23;18.25;;;716.90;179.20;;;;;;5039307;28;20102;-58
2021/03/11 11:59:06;;;;;;;25.75;19.42;;;717.60;179.20;;;;;;5041156;28;20056;-59
2021/03/11 12:01:31;;;;;;;20.30;17.10;;;742.80;204.80;;;;;;5027460;28;20119;-60
2021/03/11 12:03:57;;;;;;;18.60;15.50;;;742.70;204.80;;;;;;5037135;28;20026;-59
2021/03/11 12:06:23;;;;;;;28.60;23.25;;;742.80;204.80;;;;;;5040987;28;20025;-59
2021/03/11 12:08:48;;;;;;;22.80;18.00;;;743.10;204.80;;;;;;5042637;28;20406;-58
2021/03/11 12:11:14;;;;;;;56.50;42.63;;;768.10;204.80;;;;;;5050820;28;20095;-60
2021/03/11 12:13:40;;;;;;;50.38;35.80;;;743.20;204.80;;;;;;5039703;28;20446;-59
2021/03/11 12:16:06;;;;;;;32.13;25.05;;;793.90;230.40;;;;;;5033154;28;20041;-59
2021/03/11 12:18:32;;;;;;;35.47;28.25;;;768.40;204.80;;;;;;5033537;28;20033;-59